sensor_id;sensor_type;location;lat;lon;timestamp;temperature;humidity
21928;DHT22;11128;51.096;17.190;2023-07-16T00:03:33;24.90;1.00
21928;DHT22;11128;51.096;17.190;2023-07-16T00:08:34;24.80;1.00
21928;DHT22;11128;51.096;17.190;2023-07-16T00:13:35;24.70;1.00
21928;DHT22;11128;51.096;17.190;2023-07-16T00:18:37;24.70;1.00
21928;DHT22;11128;51.096;17.190;2023-07-16T00:23:38;24.80;1.00
21928;DHT22;11128;51.096;17.190;2023-07-16T00:28:40;24.80;1.00
21928;DHT22;11128;51.096;17.190;2023-07-16T00:33:41;24.80;1.00
21928;DHT22;11128;51.096;17.190;2023-07-16T00:38:43;24.80;1.00
21928;DHT22;11128;51.096;17.190;2023-07-16T00:43:46;24.80;1.00
21928;DHT22;11128;51.096;17.190;2023-07-16T00:48:47;24.90;1.00
21928;DHT22;11128;51.096;17.190;2023-07-16T00:53:49;24.70;1.00
21928;DHT22;11128;51.096;17.190;2023-07-16T00:58:50;24.60;1.00
21928;DHT22;11128;51.096;17.190;2023-07-16T01:03:51;24.50;1.00
21928;DHT22;11128;51.096;17.190;2023-07-16T01:08:58;24.60;1.00
21928;DHT22;11128;51.096;17.190;2023-07-16T01:14:03;24.60;1.00
21928;DHT22;11128;51.096;17.190;2023-07-16T01:19:04;24.40;1.00
21928;DHT22;11128;51.096;17.190;2023-07-16T01:29:51;24.20;1.00
21928;DHT22;11128;51.096;17.190;2023-07-16T01:34:55;24.30;1.00
21928;DHT22;11128;51.096;17.190;2023-07-16T01:39:57;24.20;1.00
21928;DHT22;11128;51.096;17.190;2023-07-16T01:44:58;24.20;1.00
21928;DHT22;11128;51.096;17.190;2023-07-16T01:49:59;24.10;1.00
21928;DHT22;11128;51.096;17.190;2023-07-16T01:55:01;24.00;1.00
21928;DHT22;11128;51.096;17.190;2023-07-16T02:00:02;23.80;1.00
21928;DHT22;11128;51.096;17.190;2023-07-16T02:05:04;23.90;1.00
21928;DHT22;11128;51.096;17.190;2023-07-16T02:10:05;24.00;1.00
21928;DHT22;11128;51.096;17.190;2023-07-16T02:15:07;24.00;1.00
21928;DHT22;11128;51.096;17.190;2023-07-16T02:20:09;24.00;1.00
21928;DHT22;11128;51.096;17.190;2023-07-16T02:25:11;24.00;1.00
21928;DHT22;11128;51.096;17.190;2023-07-16T02:30:14;24.00;1.00
21928;DHT22;11128;51.096;17.190;2023-07-16T02:35:16;24.00;1.00
21928;DHT22;11128;51.096;17.190;2023-07-16T02:40:17;24.00;1.00
21928;DHT22;11128;51.096;17.190;2023-07-16T02:45:18;23.80;1.00
21928;DHT22;11128;51.096;17.190;2023-07-16T02:50:19;23.80;3.80
21928;DHT22;11128;51.096;17.190;2023-07-16T02:55:21;23.70;5.90
21928;DHT22;11128;51.096;17.190;2023-07-16T03:00:22;23.60;13.70
21928;DHT22;11128;51.096;17.190;2023-07-16T03:05:25;23.60;6.10
21928;DHT22;11128;51.096;17.190;2023-07-16T03:10:26;23.70;1.00
21928;DHT22;11128;51.096;17.190;2023-07-16T03:15:28;23.60;1.00
21928;DHT22;11128;51.096;17.190;2023-07-16T03:20:29;23.40;41.30
21928;DHT22;11128;51.096;17.190;2023-07-16T03:25:30;23.30;52.70
21928;DHT22;11128;51.096;17.190;2023-07-16T03:30:32;23.30;52.60
21928;DHT22;11128;51.096;17.190;2023-07-16T03:35:34;23.20;75.50
21928;DHT22;11128;51.096;17.190;2023-07-16T03:40:35;23.20;96.20
21928;DHT22;11128;51.096;17.190;2023-07-16T03:45:36;23.10;99.90
21928;DHT22;11128;51.096;17.190;2023-07-16T03:50:38;23.10;99.90
21928;DHT22;11128;51.096;17.190;2023-07-16T03:55:39;23.20;99.90
21928;DHT22;11128;51.096;17.190;2023-07-16T04:00:41;23.20;99.90
21928;DHT22;11128;51.096;17.190;2023-07-16T04:05:42;23.20;99.90
21928;DHT22;11128;51.096;17.190;2023-07-16T04:10:44;23.30;99.90
21928;DHT22;11128;51.096;17.190;2023-07-16T04:15:45;23.40;99.90
21928;DHT22;11128;51.096;17.190;2023-07-16T04:20:46;23.50;99.90
21928;DHT22;11128;51.096;17.190;2023-07-16T04:25:51;23.50;99.90
21928;DHT22;11128;51.096;17.190;2023-07-16T04:30:54;23.60;99.90
21928;DHT22;11128;51.096;17.190;2023-07-16T04:35:56;23.50;99.90
21928;DHT22;11128;51.096;17.190;2023-07-16T04:40:58;23.60;99.90
21928;DHT22;11128;51.096;17.190;2023-07-16T04:46:00;23.60;99.90
21928;DHT22;11128;51.096;17.190;2023-07-16T04:51:01;23.70;99.90
21928;DHT22;11128;51.096;17.190;2023-07-16T05:01:02;23.90;71.40
21928;DHT22;11128;51.096;17.190;2023-07-16T05:06:04;24.00;73.20
21928;DHT22;11128;51.096;17.190;2023-07-16T05:11:05;24.00;50.90
21928;DHT22;11128;51.096;17.190;2023-07-16T05:16:06;24.10;43.10
21928;DHT22;11128;51.096;17.190;2023-07-16T05:21:07;24.20;25.90
21928;DHT22;11128;51.096;17.190;2023-07-16T05:26:09;24.20;29.30
21928;DHT22;11128;51.096;17.190;2023-07-16T05:31:10;24.40;13.60
21928;DHT22;11128;51.096;17.190;2023-07-16T05:36:11;24.50;1.00
21928;DHT22;11128;51.096;17.190;2023-07-16T05:41:12;24.50;1.00
21928;DHT22;11128;51.096;17.190;2023-07-16T05:46:14;24.60;1.00
21928;DHT22;11128;51.096;17.190;2023-07-16T05:51:15;24.80;1.00
21928;DHT22;11128;51.096;17.190;2023-07-16T05:56:16;24.90;1.00
21928;DHT22;11128;51.096;17.190;2023-07-16T06:01:18;25.00;1.00
21928;DHT22;11128;51.096;17.190;2023-07-16T06:06:19;25.10;1.00
21928;DHT22;11128;51.096;17.190;2023-07-16T06:11:20;25.20;1.00
21928;DHT22;11128;51.096;17.190;2023-07-16T06:16:22;25.30;1.00
21928;DHT22;11128;51.096;17.190;2023-07-16T06:21:23;25.50;1.00
21928;DHT22;11128;51.096;17.190;2023-07-16T06:26:24;25.50;1.00
21928;DHT22;11128;51.096;17.190;2023-07-16T06:31:26;25.50;1.00
21928;DHT22;11128;51.096;17.190;2023-07-16T06:36:27;25.60;1.00
21928;DHT22;11128;51.096;17.190;2023-07-16T06:41:28;25.70;1.00
21928;DHT22;11128;51.096;17.190;2023-07-16T06:46:31;25.80;1.00
21928;DHT22;11128;51.096;17.190;2023-07-16T06:51:32;25.80;1.00
21928;DHT22;11128;51.096;17.190;2023-07-16T06:56:34;25.90;1.00
21928;DHT22;11128;51.096;17.190;2023-07-16T07:01:35;25.80;1.00
21928;DHT22;11128;51.096;17.190;2023-07-16T07:06:36;25.90;1.00
21928;DHT22;11128;51.096;17.190;2023-07-16T07:11:38;26.00;1.00
21928;DHT22;11128;51.096;17.190;2023-07-16T07:16:39;26.00;1.00
21928;DHT22;11128;51.096;17.190;2023-07-16T07:21:41;26.00;1.00
21928;DHT22;11128;51.096;17.190;2023-07-16T07:26:42;26.00;1.00
21928;DHT22;11128;51.096;17.190;2023-07-16T07:31:43;26.10;1.00
21928;DHT22;11128;51.096;17.190;2023-07-16T07:36:46;26.20;1.00
21928;DHT22;11128;51.096;17.190;2023-07-16T07:41:47;26.20;1.00
21928;DHT22;11128;51.096;17.190;2023-07-16T07:46:48;26.30;1.00
21928;DHT22;11128;51.096;17.190;2023-07-16T07:51:50;26.40;1.00
21928;DHT22;11128;51.096;17.190;2023-07-16T07:56:51;26.70;1.00
21928;DHT22;11128;51.096;17.190;2023-07-16T08:01:52;26.80;1.00
21928;DHT22;11128;51.096;17.190;2023-07-16T08:06:54;27.10;1.00
21928;DHT22;11128;51.096;17.190;2023-07-16T08:11:55;27.30;1.00
21928;DHT22;11128;51.096;17.190;2023-07-16T08:16:56;27.60;1.00
21928;DHT22;11128;51.096;17.190;2023-07-16T08:21:58;28.00;1.00
21928;DHT22;11128;51.096;17.190;2023-07-16T08:26:59;28.20;1.00
21928;DHT22;11128;51.096;17.190;2023-07-16T08:32:00;28.30;1.00
21928;DHT22;11128;51.096;17.190;2023-07-16T08:37:02;28.70;1.00
21928;DHT22;11128;51.096;17.190;2023-07-16T08:42:04;29.10;1.00
21928;DHT22;11128;51.096;17.190;2023-07-16T08:47:06;29.20;1.00
21928;DHT22;11128;51.096;17.190;2023-07-16T08:52:09;29.10;1.00
21928;DHT22;11128;51.096;17.190;2023-07-16T08:57:12;29.00;1.00
21928;DHT22;11128;51.096;17.190;2023-07-16T09:02:17;29.10;1.00
21928;DHT22;11128;51.096;17.190;2023-07-16T09:07:19;29.20;1.00
21928;DHT22;11128;51.096;17.190;2023-07-16T09:12:23;29.00;1.00
21928;DHT22;11128;51.096;17.190;2023-07-16T09:17:25;28.90;1.00
21928;DHT22;11128;51.096;17.190;2023-07-16T09:22:29;28.80;1.00
21928;DHT22;11128;51.096;17.190;2023-07-16T09:27:31;28.60;1.00
21928;DHT22;11128;51.096;17.190;2023-07-16T09:32:37;28.40;1.00
21928;DHT22;11128;51.096;17.190;2023-07-16T09:37:40;28.30;1.00
21928;DHT22;11128;51.096;17.190;2023-07-16T09:42:43;28.10;1.00
21928;DHT22;11128;51.096;17.190;2023-07-16T09:47:45;27.90;1.00
21928;DHT22;11128;51.096;17.190;2023-07-16T09:52:47;28.00;1.00
21928;DHT22;11128;51.096;17.190;2023-07-16T09:57:49;28.30;1.00
21928;DHT22;11128;51.096;17.190;2023-07-16T10:02:51;28.70;1.00
21928;DHT22;11128;51.096;17.190;2023-07-16T10:07:57;29.00;1.00
21928;DHT22;11128;51.096;17.190;2023-07-16T10:13:02;29.30;1.00
21928;DHT22;11128;51.096;17.190;2023-07-16T10:18:04;29.50;1.00
21928;DHT22;11128;51.096;17.190;2023-07-16T10:23:12;29.50;1.00
21928;DHT22;11128;51.096;17.190;2023-07-16T10:28:14;29.40;1.00
21928;DHT22;11128;51.096;17.190;2023-07-16T10:33:15;29.40;1.00
21928;DHT22;11128;51.096;17.190;2023-07-16T10:38:17;29.30;1.00
21928;DHT22;11128;51.096;17.190;2023-07-16T10:43:18;29.10;1.00
21928;DHT22;11128;51.096;17.190;2023-07-16T10:48:24;28.90;1.00
21928;DHT22;11128;51.096;17.190;2023-07-16T10:53:26;28.80;1.00
21928;DHT22;11128;51.096;17.190;2023-07-16T10:58:27;28.70;1.00
21928;DHT22;11128;51.096;17.190;2023-07-16T11:03:28;28.70;1.00
21928;DHT22;11128;51.096;17.190;2023-07-16T11:08:30;28.60;1.00
21928;DHT22;11128;51.096;17.190;2023-07-16T11:13:34;28.30;1.00
21928;DHT22;11128;51.096;17.190;2023-07-16T11:18:36;28.10;1.00
21928;DHT22;11128;51.096;17.190;2023-07-16T11:23:37;27.90;1.00
21928;DHT22;11128;51.096;17.190;2023-07-16T11:28:40;27.70;1.00
21928;DHT22;11128;51.096;17.190;2023-07-16T11:33:43;27.60;1.00
21928;DHT22;11128;51.096;17.190;2023-07-16T11:38:44;27.40;1.00
21928;DHT22;11128;51.096;17.190;2023-07-16T11:43:46;27.30;1.00
21928;DHT22;11128;51.096;17.190;2023-07-16T11:48:48;27.30;1.00
21928;DHT22;11128;51.096;17.190;2023-07-16T11:53:49;27.40;1.00
21928;DHT22;11128;51.096;17.190;2023-07-16T11:58:51;27.40;1.00
21928;DHT22;11128;51.096;17.190;2023-07-16T12:03:52;27.50;1.00
21928;DHT22;11128;51.096;17.190;2023-07-16T12:08:53;27.50;1.00
21928;DHT22;11128;51.096;17.190;2023-07-16T12:13:56;27.50;1.00
21928;DHT22;11128;51.096;17.190;2023-07-16T12:18:57;27.40;1.00
21928;DHT22;11128;51.096;17.190;2023-07-16T12:23:59;27.60;1.00
21928;DHT22;11128;51.096;17.190;2023-07-16T12:29:04;27.60;1.00
21928;DHT22;11128;51.096;17.190;2023-07-16T12:34:16;27.60;1.00
21928;DHT22;11128;51.096;17.190;2023-07-16T12:39:24;27.70;1.00
21928;DHT22;11128;51.096;17.190;2023-07-16T12:44:26;27.80;1.00
21928;DHT22;11128;51.096;17.190;2023-07-16T12:49:28;27.80;1.00
21928;DHT22;11128;51.096;17.190;2023-07-16T12:54:29;27.80;1.00
21928;DHT22;11128;51.096;17.190;2023-07-16T12:59:30;27.80;1.00
21928;DHT22;11128;51.096;17.190;2023-07-16T13:04:32;27.80;1.00
21928;DHT22;11128;51.096;17.190;2023-07-16T13:09:33;27.90;1.00
21928;DHT22;11128;51.096;17.190;2023-07-16T13:14:34;28.10;1.00
21928;DHT22;11128;51.096;17.190;2023-07-16T13:19:35;28.20;1.00
21928;DHT22;11128;51.096;17.190;2023-07-16T13:24:37;28.10;1.00
21928;DHT22;11128;51.096;17.190;2023-07-16T13:29:38;28.10;1.00
21928;DHT22;11128;51.096;17.190;2023-07-16T13:34:40;28.10;1.00
21928;DHT22;11128;51.096;17.190;2023-07-16T13:39:41;28.10;1.00
21928;DHT22;11128;51.096;17.190;2023-07-16T13:44:42;28.10;1.00
21928;DHT22;11128;51.096;17.190;2023-07-16T13:49:43;28.20;1.00
21928;DHT22;11128;51.096;17.190;2023-07-16T13:54:44;28.20;1.00
21928;DHT22;11128;51.096;17.190;2023-07-16T13:59:46;28.20;1.00
21928;DHT22;11128;51.096;17.190;2023-07-16T14:04:48;28.20;1.00
21928;DHT22;11128;51.096;17.190;2023-07-16T14:09:50;28.30;1.00
21928;DHT22;11128;51.096;17.190;2023-07-16T14:14:51;28.50;1.00
21928;DHT22;11128;51.096;17.190;2023-07-16T14:19:52;28.90;1.00
21928;DHT22;11128;51.096;17.190;2023-07-16T14:24:54;29.20;1.00
21928;DHT22;11128;51.096;17.190;2023-07-16T14:29:55;29.40;1.00
21928;DHT22;11128;51.096;17.190;2023-07-16T14:34:56;29.40;1.00
21928;DHT22;11128;51.096;17.190;2023-07-16T14:39:58;29.30;1.00
21928;DHT22;11128;51.096;17.190;2023-07-16T14:44:59;29.20;1.00
21928;DHT22;11128;51.096;17.190;2023-07-16T14:50:00;28.90;1.00
21928;DHT22;11128;51.096;17.190;2023-07-16T14:55:09;28.80;1.00
21928;DHT22;11128;51.096;17.190;2023-07-16T15:00:20;28.60;1.00
21928;DHT22;11128;51.096;17.190;2023-07-16T15:05:30;28.50;1.00
21928;DHT22;11128;51.096;17.190;2023-07-16T15:10:43;28.30;1.00
21928;DHT22;11128;51.096;17.190;2023-07-16T15:15:48;28.20;1.00
21928;DHT22;11128;51.096;17.190;2023-07-16T15:21:01;28.10;1.00
21928;DHT22;11128;51.096;17.190;2023-07-16T15:26:05;27.90;1.00
21928;DHT22;11128;51.096;17.190;2023-07-16T15:31:09;27.80;1.00
21928;DHT22;11128;51.096;17.190;2023-07-16T15:36:13;27.70;1.00
21928;DHT22;11128;51.096;17.190;2023-07-16T15:41:19;27.70;1.00
21928;DHT22;11128;51.096;17.190;2023-07-16T15:46:21;27.60;1.00
21928;DHT22;11128;51.096;17.190;2023-07-16T15:51:22;27.50;1.00
21928;DHT22;11128;51.096;17.190;2023-07-16T15:56:24;27.40;1.00
21928;DHT22;11128;51.096;17.190;2023-07-16T16:01:26;27.40;1.00
21928;DHT22;11128;51.096;17.190;2023-07-16T16:06:28;27.40;1.00
21928;DHT22;11128;51.096;17.190;2023-07-16T16:11:30;27.50;1.00
21928;DHT22;11128;51.096;17.190;2023-07-16T16:16:31;27.60;1.00
21928;DHT22;11128;51.096;17.190;2023-07-16T16:21:33;27.60;1.00
21928;DHT22;11128;51.096;17.190;2023-07-16T16:26:34;27.60;1.00
21928;DHT22;11128;51.096;17.190;2023-07-16T16:31:36;27.60;1.00
21928;DHT22;11128;51.096;17.190;2023-07-16T16:36:37;27.60;1.00
21928;DHT22;11128;51.096;17.190;2023-07-16T16:41:39;27.60;1.00
21928;DHT22;11128;51.096;17.190;2023-07-16T16:46:40;27.60;1.00
21928;DHT22;11128;51.096;17.190;2023-07-16T16:51:41;27.50;1.00
21928;DHT22;11128;51.096;17.190;2023-07-16T16:56:42;27.60;1.00
21928;DHT22;11128;51.096;17.190;2023-07-16T17:01:44;27.60;1.00
21928;DHT22;11128;51.096;17.190;2023-07-16T17:06:45;27.60;1.00
21928;DHT22;11128;51.096;17.190;2023-07-16T17:11:47;27.60;1.00
21928;DHT22;11128;51.096;17.190;2023-07-16T17:16:48;27.60;1.00
21928;DHT22;11128;51.096;17.190;2023-07-16T17:21:49;27.50;1.00
21928;DHT22;11128;51.096;17.190;2023-07-16T17:26:51;27.50;1.00
21928;DHT22;11128;51.096;17.190;2023-07-16T17:31:52;27.40;1.00
21928;DHT22;11128;51.096;17.190;2023-07-16T17:36:53;27.40;1.00
21928;DHT22;11128;51.096;17.190;2023-07-16T17:41:55;27.30;1.00
21928;DHT22;11128;51.096;17.190;2023-07-16T17:46:57;27.20;1.00
21928;DHT22;11128;51.096;17.190;2023-07-16T17:51:58;27.20;1.00
21928;DHT22;11128;51.096;17.190;2023-07-16T17:57:00;27.10;1.00
21928;DHT22;11128;51.096;17.190;2023-07-16T18:02:01;27.10;1.00
21928;DHT22;11128;51.096;17.190;2023-07-16T18:07:04;27.00;1.00
21928;DHT22;11128;51.096;17.190;2023-07-16T18:12:05;27.00;1.00
21928;DHT22;11128;51.096;17.190;2023-07-16T18:17:07;26.90;1.00
21928;DHT22;11128;51.096;17.190;2023-07-16T18:22:09;26.90;1.00
21928;DHT22;11128;51.096;17.190;2023-07-16T18:27:11;26.90;1.00
21928;DHT22;11128;51.096;17.190;2023-07-16T18:32:12;26.80;1.00
21928;DHT22;11128;51.096;17.190;2023-07-16T18:37:13;26.80;1.00
21928;DHT22;11128;51.096;17.190;2023-07-16T18:42:15;26.70;1.00
21928;DHT22;11128;51.096;17.190;2023-07-16T18:47:16;26.70;1.00
21928;DHT22;11128;51.096;17.190;2023-07-16T18:52:18;26.60;1.00
21928;DHT22;11128;51.096;17.190;2023-07-16T18:57:19;26.50;1.00
21928;DHT22;11128;51.096;17.190;2023-07-16T19:02:21;26.40;1.00
21928;DHT22;11128;51.096;17.190;2023-07-16T19:07:22;26.30;1.00
21928;DHT22;11128;51.096;17.190;2023-07-16T19:12:24;26.20;1.00
21928;DHT22;11128;51.096;17.190;2023-07-16T19:17:27;26.00;1.00
21928;DHT22;11128;51.096;17.190;2023-07-16T19:22:29;25.90;1.00
21928;DHT22;11128;51.096;17.190;2023-07-16T19:27:30;25.70;1.00
21928;DHT22;11128;51.096;17.190;2023-07-16T19:32:33;25.60;1.00
21928;DHT22;11128;51.096;17.190;2023-07-16T19:37:35;25.50;21.60
21928;DHT22;11128;51.096;17.190;2023-07-16T19:42:36;25.40;18.10
21928;DHT22;11128;51.096;17.190;2023-07-16T19:47:37;25.20;22.80
21928;DHT22;11128;51.096;17.190;2023-07-16T19:52:40;25.20;30.90
21928;DHT22;11128;51.096;17.190;2023-07-16T19:57:42;25.10;32.00
21928;DHT22;11128;51.096;17.190;2023-07-16T20:02:44;25.00;36.80
21928;DHT22;11128;51.096;17.190;2023-07-16T20:07:47;25.00;50.80
21928;DHT22;11128;51.096;17.190;2023-07-16T20:12:48;24.80;63.30
21928;DHT22;11128;51.096;17.190;2023-07-16T20:17:51;24.70;78.20
21928;DHT22;11128;51.096;17.190;2023-07-16T20:22:53;24.60;96.70
21928;DHT22;11128;51.096;17.190;2023-07-16T20:27:56;24.50;99.90
21928;DHT22;11128;51.096;17.190;2023-07-16T20:32:58;24.40;99.90
21928;DHT22;11128;51.096;17.190;2023-07-16T20:38:01;24.30;99.90
21928;DHT22;11128;51.096;17.190;2023-07-16T20:43:03;24.20;99.90
21928;DHT22;11128;51.096;17.190;2023-07-16T20:48:04;24.30;99.90
21928;DHT22;11128;51.096;17.190;2023-07-16T20:53:06;24.30;99.90
21928;DHT22;11128;51.096;17.190;2023-07-16T20:58:08;24.20;99.90
21928;DHT22;11128;51.096;17.190;2023-07-16T21:03:09;24.00;99.90
21928;DHT22;11128;51.096;17.190;2023-07-16T21:08:11;24.00;99.90
21928;DHT22;11128;51.096;17.190;2023-07-16T21:13:12;23.90;99.90
21928;DHT22;11128;51.096;17.190;2023-07-16T21:18:14;23.90;99.90
21928;DHT22;11128;51.096;17.190;2023-07-16T21:23:22;23.80;99.90
21928;DHT22;11128;51.096;17.190;2023-07-16T21:28:26;23.60;99.90
21928;DHT22;11128;51.096;17.190;2023-07-16T21:33:28;23.50;99.90
21928;DHT22;11128;51.096;17.190;2023-07-16T21:38:29;23.40;99.90
21928;DHT22;11128;51.096;17.190;2023-07-16T21:43:31;23.40;99.90
21928;DHT22;11128;51.096;17.190;2023-07-16T21:48:32;23.20;99.90
21928;DHT22;11128;51.096;17.190;2023-07-16T21:53:33;23.20;99.90
21928;DHT22;11128;51.096;17.190;2023-07-16T21:58:35;23.20;99.90
21928;DHT22;11128;51.096;17.190;2023-07-16T22:03:36;23.20;99.90
21928;DHT22;11128;51.096;17.190;2023-07-16T22:08:38;23.30;99.90
21928;DHT22;11128;51.096;17.190;2023-07-16T22:13:39;23.40;99.90
21928;DHT22;11128;51.096;17.190;2023-07-16T22:18:40;23.30;99.90
21928;DHT22;11128;51.096;17.190;2023-07-16T22:23:42;23.10;99.90
21928;DHT22;11128;51.096;17.190;2023-07-16T22:28:43;23.10;99.90
21928;DHT22;11128;51.096;17.190;2023-07-16T22:33:45;23.00;99.90
21928;DHT22;11128;51.096;17.190;2023-07-16T22:38:46;22.80;99.90
21928;DHT22;11128;51.096;17.190;2023-07-16T22:43:48;22.70;99.90
21928;DHT22;11128;51.096;17.190;2023-07-16T22:48:49;22.60;99.90
21928;DHT22;11128;51.096;17.190;2023-07-16T22:53:54;22.60;99.90
21928;DHT22;11128;51.096;17.190;2023-07-16T22:58:55;22.60;99.90
21928;DHT22;11128;51.096;17.190;2023-07-16T23:03:57;22.60;99.90
21928;DHT22;11128;51.096;17.190;2023-07-16T23:08:58;22.50;1.00
21928;DHT22;11128;51.096;17.190;2023-07-16T23:13:59;22.50;1.00
21928;DHT22;11128;51.096;17.190;2023-07-16T23:19:01;22.50;99.90
21928;DHT22;11128;51.096;17.190;2023-07-16T23:24:03;22.50;99.90
21928;DHT22;11128;51.096;17.190;2023-07-16T23:29:05;22.40;99.90
21928;DHT22;11128;51.096;17.190;2023-07-16T23:34:06;22.20;99.90
21928;DHT22;11128;51.096;17.190;2023-07-16T23:39:08;22.20;99.90
21928;DHT22;11128;51.096;17.190;2023-07-16T23:44:09;22.10;99.90
21928;DHT22;11128;51.096;17.190;2023-07-16T23:49:10;22.10;99.90
21928;DHT22;11128;51.096;17.190;2023-07-16T23:54:12;22.10;99.90
21928;DHT22;11128;51.096;17.190;2023-07-16T23:59:13;22.20;99.90
